createdAt,value
2022-10-28T00:03:35.867Z,25.60
2022-10-28T00:08:38.054Z,26.87
2022-10-28T00:13:34.372Z,28.12
2022-10-28T00:18:36.892Z,27.24
2022-10-28T00:23:33.496Z,26.53
2022-10-28T00:28:32.857Z,26.47
2022-10-28T00:33:35.256Z,26.47
2022-10-28T00:38:31.920Z,27.18
2022-10-28T00:43:34.406Z,26.60
2022-10-28T00:48:30.774Z,25.50
2022-10-28T00:53:30.276Z,25.02
2022-10-28T00:58:29.951Z,25.31
2022-10-28T01:03:29.103Z,25.86
2022-10-28T01:08:28.469Z,25.97
2022-10-28T01:13:30.644Z,25.39
2022-10-28T01:18:26.907Z,25.21
2022-10-28T01:23:26.399Z,25.34
2022-10-28T01:28:31.534Z,26.87
2022-10-28T01:33:24.615Z,25.98
2022-10-28T01:38:26.939Z,26.20
2022-10-28T01:43:23.101Z,26.24
2022-10-28T01:48:23.078Z,27.14
2022-10-28T01:53:22.538Z,28.26
2022-10-28T01:58:25.427Z,28.14
2022-10-28T02:03:21.901Z,27.38
2022-10-28T02:08:21.256Z,27.63
2022-10-28T02:13:23.735Z,27.24
2022-10-28T02:18:20.039Z,27.96
2022-10-28T02:23:22.526Z,27.07
2022-10-28T02:28:18.749Z,26.60
2022-10-28T02:33:18.216Z,28.15
2022-10-28T02:38:20.584Z,28.93
2022-10-28T02:43:20.072Z,29.13
2022-10-28T02:48:16.295Z,29.10
2022-10-28T02:53:16.011Z,29.47
2022-10-28T02:58:15.936Z,28.99
2022-10-28T03:03:15.130Z,30.24
2022-10-28T03:08:17.606Z,27.89
2022-10-28T03:13:13.711Z,28.89
2022-10-28T03:18:12.820Z,29.94
2022-10-28T03:23:12.196Z,29.06
2022-10-28T03:28:14.634Z,29.33
2022-10-28T03:33:10.924Z,29.40
2022-10-28T03:38:11.341Z,30.61
2022-10-28T03:43:12.576Z,30.24
2022-10-28T03:48:09.413Z,29.55
2022-10-28T03:53:12.742Z,31.39
2022-10-28T03:58:08.087Z,32.90
2022-10-28T04:03:10.284Z,32.59
2022-10-28T04:08:07.080Z,31.07
2022-10-28T04:13:07.812Z,31.80
2022-10-28T04:18:12.816Z,31.58
2022-10-28T04:23:05.862Z,29.75
2022-10-28T04:28:08.471Z,31.01
2022-10-28T04:33:05.005Z,33.73
2022-10-28T04:38:07.419Z,33.95
2022-10-28T04:43:07.325Z,34.22
2022-10-28T04:48:03.099Z,36.69
2022-10-28T04:53:05.573Z,33.77
2022-10-28T04:58:01.772Z,33.59
2022-10-28T05:03:01.093Z,32.06
2022-10-28T05:08:04.652Z,28.94
2022-10-28T05:13:05.039Z,29.31
2022-10-28T05:17:59.349Z,29.59
2022-10-28T05:23:01.628Z,28.38
2022-10-28T05:27:58.555Z,27.65
2022-10-28T05:32:58.035Z,26.85
2022-10-28T05:38:00.688Z,27.48
2022-10-28T05:42:56.947Z,28.64
2022-10-28T05:47:56.461Z,28.67
2022-10-28T05:53:00.163Z,30.12
2022-10-28T05:57:55.792Z,32.60
2022-10-28T06:02:59.694Z,28.97
2022-10-28T06:07:59.357Z,32.53
2022-10-28T06:12:53.321Z,29.17
2022-10-28T06:17:52.982Z,35.65
2022-10-28T06:22:55.849Z,38.78
2022-10-28T06:27:53.443Z,36.91
2022-10-28T06:32:50.972Z,34.20
2022-10-28T06:38:00.134Z,31.69
2022-10-28T06:42:50.195Z,30.23
2022-10-28T06:47:50.302Z,37.78
2022-10-28T06:52:49.491Z,33.25
2022-10-28T06:57:48.677Z,35.25
2022-10-28T07:02:47.864Z,35.40
2022-10-28T07:07:47.371Z,32.29
2022-10-28T07:12:49.685Z,32.85
2022-10-28T07:17:46.222Z,30.49
2022-10-28T07:22:45.484Z,33.30
2022-10-28T07:27:45.284Z,32.72
2022-10-28T07:32:47.734Z,29.47
2022-10-28T07:37:45.015Z,29.00
2022-10-28T07:42:43.340Z,26.88
2022-10-28T07:47:45.969Z,29.10
2022-10-28T07:52:42.333Z,30.93
2022-10-28T07:57:41.789Z,27.07
2022-10-28T08:02:44.288Z,27.18
2022-10-28T08:07:43.704Z,27.58
2022-10-28T08:12:44.408Z,27.33
2022-10-28T08:17:39.742Z,29.51
2022-10-28T08:22:42.269Z,27.22
2022-10-28T08:27:38.673Z,27.88
2022-10-28T08:32:38.093Z,26.21
2022-10-28T08:37:37.754Z,27.01
2022-10-28T08:42:39.304Z,29.44
2022-10-28T08:47:39.958Z,33.93
2022-10-28T08:52:36.167Z,31.96
2022-10-28T08:57:35.539Z,31.77
2022-10-28T09:02:35.221Z,29.78
2022-10-28T09:07:34.926Z,32.36
2022-10-28T09:12:37.188Z,29.00
2022-10-28T09:17:33.511Z,28.27
2022-10-28T09:22:32.831Z,32.13
2022-10-28T09:27:32.580Z,30.66
2022-10-28T09:32:36.373Z,34.59
2022-10-28T09:37:31.601Z,30.78
2022-10-28T09:42:34.096Z,29.64
2022-10-28T09:47:30.452Z,30.65
2022-10-28T09:52:29.822Z,29.56
2022-10-28T09:57:32.351Z,32.76
2022-10-28T10:02:28.777Z,31.22
2022-10-28T10:07:28.420Z,28.33
2022-10-28T10:12:31.156Z,27.41
2022-10-28T10:17:27.951Z,30.71
2022-10-28T10:22:27.437Z,29.44
2022-10-28T10:27:30.138Z,30.50
2022-10-28T10:32:26.364Z,28.88
2022-10-28T10:37:29.030Z,28.20
2022-10-28T10:42:25.288Z,26.32
2022-10-28T10:47:26.313Z,26.19
2022-10-28T10:52:28.079Z,27.50
2022-10-28T10:57:26.548Z,28.24
2022-10-28T11:02:26.350Z,28.33
2022-10-28T11:07:22.715Z,28.66
2022-10-28T11:12:25.230Z,27.98
2022-10-28T11:17:21.795Z,26.61
2022-10-28T11:22:21.393Z,27.14
2022-10-28T11:27:23.614Z,26.13
2022-10-28T11:32:19.839Z,25.29
2022-10-28T11:37:22.813Z,24.93
2022-10-28T11:42:19.313Z,25.68
2022-10-28T11:47:18.938Z,27.08
2022-10-28T11:52:20.394Z,28.60
2022-10-28T11:57:21.012Z,28.55
2022-10-28T12:02:24.171Z,27.10
2022-10-28T12:07:16.558Z,26.89
2022-10-28T12:12:15.905Z,25.46
2022-10-28T12:17:18.536Z,25.32
2022-10-28T12:22:17.947Z,28.60
2022-10-28T12:27:17.188Z,28.98
2022-10-28T12:32:14.006Z,33.05
2022-10-28T12:37:13.203Z,31.28
2022-10-28T12:42:15.816Z,30.48
2022-10-28T12:47:12.123Z,28.35
2022-10-28T12:52:14.432Z,26.73
2022-10-28T12:57:10.800Z,31.42
2022-10-28T13:02:10.299Z,30.90
2022-10-28T13:07:13.861Z,32.62
2022-10-28T13:12:09.013Z,30.73
2022-10-28T13:17:08.154Z,32.74
2022-10-28T13:22:08.053Z,33.43
2022-10-28T13:27:10.827Z,32.42
2022-10-28T13:32:10.061Z,33.88
2022-10-28T13:37:09.733Z,31.90
2022-10-28T13:42:06.006Z,31.62
2022-10-28T13:47:11.517Z,30.53
2022-10-28T13:52:06.738Z,29.30
2022-10-28T13:57:08.268Z,29.78
2022-10-28T14:02:32.388Z,30.88
2022-10-28T14:07:07.030Z,31.14
2022-10-28T14:12:02.438Z,28.62
2022-10-28T14:17:01.755Z,28.63
2022-10-28T14:22:07.276Z,28.40
2022-10-28T14:27:02.675Z,32.63
2022-10-28T14:32:03.945Z,31.25
2022-10-28T14:36:59.334Z,30.97
2022-10-28T14:41:59.756Z,31.26
2022-10-28T14:46:58.965Z,28.32
2022-10-28T14:52:02.377Z,26.43
2022-10-28T14:57:00.697Z,27.32
2022-10-28T15:01:58.148Z,26.54
2022-10-28T15:06:56.671Z,26.08
2022-10-28T15:12:00.958Z,26.65
2022-10-28T15:16:58.814Z,26.25
2022-10-28T15:21:59.199Z,25.86
2022-10-28T15:26:54.783Z,27.58
2022-10-28T15:32:00.850Z,29.39
2022-10-28T15:36:56.942Z,26.32
2022-10-28T15:41:55.578Z,26.31
2022-10-28T15:46:56.309Z,25.78
2022-10-28T15:51:54.839Z,26.34
2022-10-28T15:56:51.173Z,26.34
2022-10-28T16:01:50.568Z,25.16
2022-10-28T16:06:50.124Z,24.04
2022-10-28T16:11:52.495Z,25.99
2022-10-28T16:16:58.335Z,24.16
2022-10-28T16:21:49.232Z,24.23
2022-10-28T16:26:51.792Z,24.88
2022-10-28T16:31:48.073Z,28.69
2022-10-28T16:36:50.943Z,27.73
2022-10-28T16:46:49.863Z,23.50
2022-10-28T16:51:46.832Z,23.59
2022-10-28T16:56:47.958Z,23.78
2022-10-28T17:01:48.734Z,25.50
2022-10-28T17:06:49.985Z,26.36
2022-10-28T17:11:44.413Z,26.39
2022-10-28T17:16:47.272Z,24.42
2022-10-28T17:21:46.035Z,25.60
2022-10-28T17:26:48.595Z,23.67
2022-10-28T17:31:54.964Z,23.15
2022-10-28T17:36:43.666Z,24.07
2022-10-28T17:41:45.183Z,23.66
2022-10-28T17:46:43.588Z,23.14
2022-10-28T17:51:41.923Z,23.80
2022-10-28T17:56:43.804Z,24.92
2022-10-28T18:01:47.867Z,24.08
2022-10-28T18:06:39.575Z,25.31
2022-10-28T18:11:39.573Z,25.42
2022-10-28T18:16:52.802Z,24.67
2022-10-28T18:21:39.960Z,23.50
2022-10-28T18:26:37.490Z,23.88
2022-10-28T18:31:38.876Z,23.66
2022-10-28T18:36:37.123Z,24.30
2022-10-28T18:41:35.577Z,25.18
2022-10-28T18:46:37.860Z,25.97
2022-10-28T18:51:33.134Z,24.75
2022-10-28T18:56:36.723Z,25.33
2022-10-28T19:01:35.302Z,24.62
2022-10-28T19:06:41.155Z,25.59
2022-10-28T19:11:46.939Z,24.54
2022-10-28T19:16:41.662Z,25.02
2022-10-28T19:21:37.780Z,25.11
2022-10-28T19:26:30.621Z,24.97
2022-10-28T19:31:33.132Z,24.78
2022-10-28T19:36:29.883Z,24.96
2022-10-28T19:41:39.889Z,24.71
2022-10-28T19:46:42.983Z,25.65
2022-10-28T19:51:31.154Z,25.62
2022-10-28T19:56:27.865Z,24.59
2022-10-28T20:01:30.863Z,24.73
2022-10-28T20:06:26.122Z,25.42
2022-10-28T20:11:26.661Z,24.38
2022-10-28T20:16:34.741Z,24.09
2022-10-28T20:21:30.852Z,23.86
2022-10-28T20:26:35.932Z,24.01
2022-10-28T20:31:27.758Z,24.45
2022-10-28T20:36:26.218Z,24.89
2022-10-28T20:41:22.678Z,24.38
2022-10-28T20:46:22.213Z,24.64
2022-10-28T20:51:24.807Z,25.24
2022-10-28T20:56:25.622Z,25.32
2022-10-28T21:01:25.805Z,25.48
2022-10-28T21:06:20.347Z,25.89
2022-10-28T21:11:19.779Z,25.88
2022-10-28T21:16:22.931Z,26.33
2022-10-28T21:21:21.456Z,25.43
2022-10-28T21:26:20.619Z,26.22
2022-10-28T21:31:17.167Z,25.34
2022-10-28T21:36:20.582Z,25.28
2022-10-28T21:41:15.925Z,25.80
2022-10-28T21:46:16.329Z,26.45
2022-10-28T21:51:17.862Z,25.86
2022-10-28T21:56:17.132Z,26.07
2022-10-28T22:01:16.499Z,25.72
2022-10-28T22:06:16.016Z,25.71
2022-10-28T22:27:56.632Z,20.66
2022-10-28T22:38:48.384Z,27.10
2022-10-28T22:43:45.025Z,26.89
2022-10-28T22:48:44.605Z,26.98
2022-10-28T22:53:44.165Z,27.02
2022-10-28T22:58:46.566Z,27.76
2022-10-28T23:03:43.260Z,26.80
2022-10-28T23:08:50.380Z,26.47
2022-10-28T23:13:49.863Z,27.76
2022-10-28T23:18:42.809Z,25.88
2022-10-28T23:23:46.200Z,25.77
2022-10-28T23:28:48.875Z,28.03
2022-10-28T23:33:45.451Z,26.20
2022-10-28T23:38:49.234Z,26.94
2022-10-28T23:43:39.382Z,26.98
2022-10-28T23:48:41.755Z,26.66
2022-10-28T23:53:43.570Z,25.54
2022-10-28T23:58:39.888Z,26.75
